Time;durP1;ratioP1;P1;durP2;ratioP2;P2;SDS_P1;SDS_P2;PMS_P1;PMS_P2;Temp;Humidity;BMP_temperature;BMP_pressure;BME280_temperature;BME280_humidity;BME280_pressure;Samples;Min_cycle;Max_cycle;Signal;HPM_P1;HPM_P2
2022/03/05 00:00:43;;;;;;;21.50;12.37;;;-2.90;99.90;;;;;;5070757;28;20486;-75
2022/03/05 00:03:11;;;;;;;21.37;11.30;;;-2.90;99.90;;;;;;5070669;28;20453;-73
2022/03/05 00:05:40;;;;;;;20.97;12.67;;;-2.90;99.90;;;;;;5070695;28;20510;-74
2022/03/05 00:08:11;;;;;;;20.77;11.57;;;-2.90;99.90;;;;;;5070320;28;20520;-76
2022/03/05 00:10:41;;;;;;;20.50;12.90;;;-3.00;99.90;;;;;;5070646;28;20421;-75
2022/03/05 00:13:10;;;;;;;20.37;12.73;;;-3.00;99.90;;;;;;5070682;28;20513;-73
2022/03/05 00:15:38;;;;;;;22.37;12.80;;;-3.00;99.90;;;;;;5070748;28;20536;-73
2022/03/05 00:18:06;;;;;;;20.77;12.00;;;-3.00;99.90;;;;;;5070525;28;20798;-73
2022/03/05 00:20:34;;;;;;;19.87;11.67;;;-3.10;99.90;;;;;;5070863;28;20856;-73
2022/03/05 00:23:02;;;;;;;19.57;11.63;;;-3.10;99.90;;;;;;5074157;28;20476;-75
2022/03/05 00:25:33;;;;;;;17.00;11.07;;;-3.10;99.90;;;;;;5073897;28;20460;-73
2022/03/05 00:28:03;;;;;;;17.23;11.03;;;-3.10;99.90;;;;;;5074172;28;20552;-77
2022/03/05 00:30:31;;;;;;;17.43;10.83;;;-3.10;99.90;;;;;;5074161;28;20595;-73
2022/03/05 00:32:59;;;;;;;17.40;11.03;;;-3.10;99.90;;;;;;5073959;28;20456;-73
2022/03/05 00:35:27;;;;;;;18.17;11.13;;;-3.20;99.90;;;;;;5074282;28;20476;-74
2022/03/05 00:37:57;;;;;;;18.83;11.43;;;-3.20;99.90;;;;;;5073732;28;20552;-73
2022/03/05 00:40:28;;;;;;;19.73;11.07;;;-3.20;99.90;;;;;;5074146;28;20863;-73
2022/03/05 00:42:56;;;;;;;17.67;10.87;;;-3.30;99.90;;;;;;5073979;28;20477;-74
2022/03/05 00:45:25;;;;;;;19.50;11.37;;;-3.30;99.90;;;;;;5074076;28;20485;-75
2022/03/05 00:47:53;;;;;;;17.67;11.13;;;-3.30;99.90;;;;;;5074026;28;20461;-73
2022/03/05 00:50:22;;;;;;;19.33;11.90;;;-3.30;99.90;;;;;;5073697;28;20560;-74
2022/03/05 00:52:50;;;;;;;18.53;11.00;;;-3.30;99.90;;;;;;5073964;28;20535;-76
2022/03/05 00:55:18;;;;;;;18.00;11.93;;;-3.40;99.90;;;;;;5073909;28;20651;-73
2022/03/05 00:57:46;;;;;;;19.63;12.47;;;-3.40;99.90;;;;;;5073519;28;20446;-73
2022/03/05 01:00:15;;;;;;;19.60;11.50;;;-3.40;99.90;;;;;;5060229;28;20467;-73
2022/03/05 01:02:44;;;;;;;18.77;10.83;;;-3.50;99.90;;;;;;5066619;28;20485;-73
2022/03/05 01:05:13;;;;;;;19.53;11.57;;;-3.40;99.90;;;;;;5074032;28;20460;-73
2022/03/05 01:07:42;;;;;;;18.37;11.17;;;-3.40;99.90;;;;;;5074398;28;20457;-74
2022/03/05 01:10:13;;;;;;;20.20;11.90;;;-3.40;99.90;;;;;;5073179;28;20491;-76
2022/03/05 01:12:41;;;;;;;19.17;11.60;;;-3.40;99.90;;;;;;5073530;28;20476;-73
2022/03/05 01:15:10;;;;;;;17.50;11.17;;;-3.50;99.90;;;;;;5073638;28;20456;-73
2022/03/05 01:17:38;;;;;;;18.43;11.20;;;-3.50;99.90;;;;;;5073377;28;20885;-75
2022/03/05 01:20:09;;;;;;;19.43;11.90;;;-3.50;99.90;;;;;;5073237;28;20541;-73
2022/03/05 01:22:37;;;;;;;17.73;11.00;;;-3.50;99.90;;;;;;5073126;28;20460;-74
2022/03/05 01:25:06;;;;;;;17.57;10.70;;;-3.50;99.90;;;;;;5072694;28;20456;-74
2022/03/05 01:27:34;;;;;;;16.00;10.73;;;-3.50;99.90;;;;;;5073143;28;20528;-73
2022/03/05 01:30:02;;;;;;;19.70;11.30;;;-3.50;99.90;;;;;;5073160;28;20598;-73
2022/03/05 01:32:30;;;;;;;17.03;11.23;;;-3.50;99.90;;;;;;5072977;28;20453;-73
2022/03/05 01:34:58;;;;;;;19.70;11.63;;;-3.50;99.90;;;;;;5073031;28;20454;-74
2022/03/05 01:37:28;;;;;;;20.50;11.80;;;-3.60;99.90;;;;;;5072337;28;20941;-74
2022/03/05 01:39:56;;;;;;;18.00;10.70;;;-3.60;99.90;;;;;;5072940;28;20561;-74
2022/03/05 01:42:26;;;;;;;19.27;11.33;;;-3.60;99.90;;;;;;5073101;28;20559;-76
2022/03/05 01:44:54;;;;;;;17.00;10.97;;;-3.60;99.90;;;;;;5072731;28;20552;-75
2022/03/05 01:47:22;;;;;;;19.83;11.67;;;-3.60;99.90;;;;;;5072665;28;20464;-72
2022/03/05 01:49:51;;;;;;;18.23;10.93;;;-3.70;99.90;;;;;;5072395;28;20487;-73
2022/03/05 01:52:20;;;;;;;18.37;10.60;;;-3.60;99.90;;;;;;5073291;28;20448;-73
2022/03/05 01:54:52;;;;;;;18.83;10.63;;;-3.70;99.90;;;;;;5072812;28;20444;-73
2022/03/05 01:57:20;;;;;;;19.23;11.37;;;-3.70;99.90;;;;;;5071290;28;20457;-76
2022/03/05 01:59:49;;;;;;;18.47;11.40;;;-3.70;99.90;;;;;;5061086;28;20503;-77
2022/03/05 02:02:18;;;;;;;19.47;11.33;;;-3.70;99.90;;;;;;5077322;28;20500;-75
2022/03/05 02:04:49;;;;;;;18.70;11.53;;;-3.70;99.90;;;;;;5078190;28;20501;-73
2022/03/05 02:07:17;;;;;;;20.07;11.40;;;-3.80;99.90;;;;;;5077047;28;20513;-73
2022/03/05 02:09:45;;;;;;;19.83;11.43;;;-3.80;99.90;;;;;;5077179;28;20515;-76
2022/03/05 02:12:14;;;;;;;16.93;11.10;;;-3.80;99.90;;;;;;5074697;28;20453;-74
2022/03/05 02:14:42;;;;;;;18.40;11.43;;;-3.80;99.90;;;;;;5072169;28;20538;-74
2022/03/05 02:17:13;;;;;;;20.27;11.40;;;-3.80;99.90;;;;;;5052656;28;20464;-77
2022/03/05 02:19:41;;;;;;;18.47;12.00;;;-3.90;99.90;;;;;;5054376;28;20496;-75
2022/03/05 02:22:11;;;;;;;18.13;10.93;;;-3.90;99.90;;;;;;5062642;28;20853;-73
2022/03/05 02:24:39;;;;;;;20.30;11.77;;;-3.90;99.90;;;;;;5072651;28;20443;-73
2022/03/05 02:27:10;;;;;;;19.63;12.20;;;-4.00;99.90;;;;;;5072551;28;21020;-73
2022/03/05 02:29:39;;;;;;;17.27;11.63;;;-4.00;99.90;;;;;;5072298;28;20568;-73
2022/03/05 02:32:07;;;;;;;21.13;12.50;;;-4.00;99.90;;;;;;5071837;28;21003;-73
2022/03/05 02:34:35;;;;;;;23.63;12.90;;;-4.10;99.90;;;;;;5072296;28;20472;-74
2022/03/05 02:37:09;;;;;;;18.10;11.97;;;-4.10;99.90;;;;;;5072196;28;20464;-73
2022/03/05 02:39:39;;;;;;;22.43;12.67;;;-4.10;99.90;;;;;;5075827;28;20545;-74
2022/03/05 02:42:08;;;;;;;18.93;11.80;;;-4.10;99.90;;;;;;5072159;28;20507;-74
2022/03/05 02:44:36;;;;;;;19.50;12.43;;;-4.10;99.90;;;;;;5071472;28;20494;-74
2022/03/05 02:47:05;;;;;;;22.40;13.50;;;-4.10;99.90;;;;;;5071654;28;20452;-75
2022/03/05 02:49:34;;;;;;;20.27;12.97;;;-4.10;99.90;;;;;;5071670;28;20562;-75
2022/03/05 02:52:03;;;;;;;21.30;13.43;;;-4.00;99.90;;;;;;5071660;28;20495;-73
2022/03/05 02:54:34;;;;;;;22.27;13.70;;;-4.10;99.90;;;;;;5071869;28;20451;-74
2022/03/05 02:57:04;;;;;;;21.33;13.00;;;-4.10;99.90;;;;;;5071433;28;20457;-74
2022/03/05 02:59:32;;;;;;;19.37;12.60;;;-4.10;99.90;;;;;;5071716;28;20451;-73
2022/03/05 03:02:00;;;;;;;23.83;14.10;;;-4.10;99.90;;;;;;5071592;28;20552;-74
2022/03/05 03:04:29;;;;;;;23.57;14.50;;;-4.00;99.90;;;;;;5071636;28;20910;-73
2022/03/05 03:06:57;;;;;;;22.27;13.77;;;-4.00;99.90;;;;;;5072047;28;20448;-74
2022/03/05 03:09:25;;;;;;;22.53;14.10;;;-4.00;99.90;;;;;;5071559;28;20518;-73
2022/03/05 03:11:53;;;;;;;24.13;14.23;;;-3.90;99.90;;;;;;5071593;28;20491;-74
2022/03/05 03:14:23;;;;;;;24.10;14.40;;;-3.90;99.90;;;;;;5071998;28;20449;-73
2022/03/05 03:16:50;;;;;;;24.20;14.63;;;-3.80;99.90;;;;;;5071555;28;20898;-75
2022/03/05 03:19:20;;;;;;;24.33;14.47;;;-3.80;99.90;;;;;;5071467;28;20452;-73
2022/03/05 03:21:48;;;;;;;23.63;14.70;;;-3.70;99.90;;;;;;5072169;28;20548;-74
2022/03/05 03:24:16;;;;;;;22.33;14.93;;;-3.70;99.90;;;;;;5073372;28;20962;-73
2022/03/05 03:26:45;;;;;;;26.17;14.53;;;-3.70;99.90;;;;;;5074218;28;20947;-74
2022/03/05 03:29:13;;;;;;;23.50;13.80;;;-3.80;99.90;;;;;;5072622;28;20448;-74
2022/03/05 03:31:42;;;;;;;22.87;14.13;;;-3.80;99.90;;;;;;5070687;28;21005;-73
2022/03/05 03:34:10;;;;;;;23.83;14.60;;;-3.80;99.90;;;;;;5071171;28;20451;-73
2022/03/05 03:36:38;;;;;;;23.33;13.77;;;-3.90;99.90;;;;;;5071652;28;20500;-75
2022/03/05 03:39:06;;;;;;;22.77;14.07;;;-3.90;99.90;;;;;;5070982;28;20481;-76
2022/03/05 03:41:34;;;;;;;22.60;13.70;;;-4.00;99.90;;;;;;5071032;28;20455;-73
2022/03/05 03:44:09;;;;;;;23.73;14.33;;;-4.00;99.90;;;;;;5071150;28;20458;-75
2022/03/05 03:46:37;;;;;;;24.77;14.47;;;-4.10;99.90;;;;;;5071171;28;20464;-75
2022/03/05 03:49:07;;;;;;;22.57;14.20;;;-4.20;99.90;;;;;;5070987;28;20461;-74
2022/03/05 03:51:35;;;;;;;24.70;14.20;;;-4.20;99.90;;;;;;5070515;28;20960;-76
2022/03/05 03:54:04;;;;;;;24.53;14.57;;;-4.20;99.90;;;;;;5071162;28;20443;-74
2022/03/05 03:56:32;;;;;;;24.23;14.57;;;-4.20;99.90;;;;;;5072083;28;20824;-73
2022/03/05 03:59:00;;;;;;;23.90;14.63;;;-4.20;99.90;;;;;;5074976;28;20459;-75
2022/03/05 04:01:28;;;;;;;23.00;14.47;;;-4.30;99.90;;;;;;5074636;28;20507;-74
2022/03/05 04:03:56;;;;;;;24.57;14.03;;;-4.30;99.90;;;;;;5074969;28;20997;-74
2022/03/05 04:08:41;;;;;;;24.00;14.47;;;-4.30;99.90;;;;;;5074511;28;20468;-74
2022/03/05 04:09:13;;;;;;;26.07;15.43;;;-4.40;99.90;;;;;;5054256;28;20828;-73
2022/03/05 04:11:41;;;;;;;24.07;15.03;;;-4.40;99.90;;;;;;5054163;28;20600;-74
2022/03/05 04:14:09;;;;;;;28.13;15.53;;;-4.40;99.90;;;;;;5054182;28;20979;-74
2022/03/05 04:16:37;;;;;;;26.13;15.40;;;-4.40;99.90;;;;;;5069849;28;20470;-74
2022/03/05 04:19:05;;;;;;;24.50;15.53;;;-4.40;99.90;;;;;;5074362;28;21002;-73
2022/03/05 04:21:35;;;;;;;28.00;15.87;;;-4.50;99.90;;;;;;5074068;28;20494;-74
2022/03/05 04:24:03;;;;;;;26.50;15.10;;;-4.40;99.90;;;;;;5074394;28;20493;-76
2022/03/05 04:26:31;;;;;;;26.77;15.80;;;-4.50;99.90;;;;;;5074072;28;20481;-73
2022/03/05 04:29:00;;;;;;;24.07;15.13;;;-4.50;99.90;;;;;;5074255;28;20495;-75
2022/03/05 04:31:28;;;;;;;26.07;15.03;;;-4.50;99.90;;;;;;5073930;28;20530;-74
2022/03/05 04:33:56;;;;;;;26.73;16.37;;;-4.60;99.90;;;;;;5074445;28;20870;-74
2022/03/05 04:36:24;;;;;;;26.77;16.07;;;-4.60;99.90;;;;;;5074331;28;20457;-75
2022/03/05 04:38:55;;;;;;;27.63;15.73;;;-4.60;99.90;;;;;;5073866;28;20838;-76
2022/03/05 04:41:24;;;;;;;25.90;15.33;;;-4.70;99.90;;;;;;5073736;28;20493;-74
2022/03/05 04:43:55;;;;;;;28.90;16.07;;;-4.70;99.90;;;;;;5073802;28;20475;-77
2022/03/05 04:46:26;;;;;;;23.50;15.20;;;-4.70;99.90;;;;;;5073751;28;20636;-76
2022/03/05 04:48:55;;;;;;;27.87;16.47;;;-4.70;99.90;;;;;;5073885;28;20484;-74
2022/03/05 04:51:23;;;;;;;25.83;15.33;;;-4.70;99.90;;;;;;5073017;28;20500;-74
2022/03/05 04:53:51;;;;;;;27.97;15.80;;;-4.70;99.90;;;;;;5073724;28;20538;-75
2022/03/05 04:56:20;;;;;;;27.70;15.60;;;-4.70;99.90;;;;;;5073510;28;21060;-73
2022/03/05 04:58:48;;;;;;;28.90;16.67;;;-4.80;99.90;;;;;;5073904;28;20519;-74
2022/03/05 05:01:18;;;;;;;27.43;15.80;;;-4.80;99.90;;;;;;5073189;28;20497;-75
2022/03/05 05:03:49;;;;;;;26.73;16.53;;;-4.80;99.90;;;;;;5058091;28;20476;-74
2022/03/05 05:06:17;;;;;;;26.87;17.20;;;-4.80;99.90;;;;;;5073627;28;20533;-74
2022/03/05 05:08:45;;;;;;;28.00;16.20;;;-4.80;99.90;;;;;;5073600;28;20524;-74
2022/03/05 05:11:13;;;;;;;27.17;16.43;;;-4.90;99.90;;;;;;5073870;28;20896;-74
2022/03/05 05:13:42;;;;;;;27.13;15.90;;;-4.90;99.90;;;;;;5073849;28;20930;-78
2022/03/05 05:16:11;;;;;;;26.87;16.47;;;-4.90;99.90;;;;;;5075180;28;20488;-73
2022/03/05 05:19:24;;;;;;;28.63;16.27;;;-4.90;99.90;;;;;;5073545;28;20506;-74
2022/03/05 05:21:27;;;;;;;27.73;15.70;;;-4.90;99.90;;;;;;5073043;28;20499;-75
2022/03/05 05:23:55;;;;;;;29.47;16.10;;;-5.00;99.90;;;;;;5073165;28;20912;-74
2022/03/05 05:26:24;;;;;;;25.97;16.37;;;-5.00;99.90;;;;;;5073345;28;20538;-74
2022/03/05 05:28:53;;;;;;;31.90;16.37;;;-5.00;99.90;;;;;;5073179;28;20479;-74
2022/03/05 05:31:21;;;;;;;26.97;16.40;;;-5.00;99.90;;;;;;5072815;28;20847;-74
2022/03/05 05:33:50;;;;;;;26.40;15.73;;;-5.10;99.90;;;;;;5073234;28;20451;-74
2022/03/05 05:36:19;;;;;;;28.87;15.87;;;-5.10;99.90;;;;;;5072771;28;20488;-75
2022/03/05 05:38:49;;;;;;;29.07;16.47;;;-5.10;99.90;;;;;;5072569;28;20493;-75
2022/03/05 05:41:18;;;;;;;29.53;16.23;;;-5.10;99.90;;;;;;5072650;28;20940;-76
2022/03/05 05:43:46;;;;;;;27.50;15.70;;;-5.10;99.90;;;;;;5072783;28;20546;-74
2022/03/05 05:46:16;;;;;;;27.17;15.87;;;-5.20;99.90;;;;;;5075214;28;20450;-75
2022/03/05 05:48:54;;;;;;;30.30;17.33;;;-5.20;99.90;;;;;;5074910;28;20430;-76
2022/03/05 05:51:22;;;;;;;29.50;16.87;;;-5.20;99.90;;;;;;5073502;28;20515;-75
2022/03/05 05:53:55;;;;;;;31.23;18.03;;;-5.10;99.90;;;;;;5055153;28;20443;-76
2022/03/05 05:56:23;;;;;;;29.33;18.17;;;-5.10;99.90;;;;;;5053875;28;20476;-74
2022/03/05 05:58:51;;;;;;;29.20;18.07;;;-5.10;99.90;;;;;;5052809;28;20499;-74
2022/03/05 06:01:21;;;;;;;28.93;17.30;;;-5.00;99.90;;;;;;5056081;28;20501;-74
2022/03/05 06:03:56;;;;;;;31.53;18.40;;;-5.00;99.90;;;;;;5071145;28;20460;-75
2022/03/05 06:06:24;;;;;;;32.77;17.90;;;-4.90;99.90;;;;;;5072894;28;20463;-76
2022/03/05 06:08:52;;;;;;;30.50;18.53;;;-4.90;99.90;;;;;;5072972;28;20442;-74
2022/03/05 06:11:20;;;;;;;32.63;19.47;;;-4.90;99.90;;;;;;5072493;28;20486;-74
2022/03/05 06:13:48;;;;;;;30.60;18.30;;;-4.80;99.90;;;;;;5072882;28;20522;-74
2022/03/05 06:16:16;;;;;;;34.33;18.93;;;-4.80;99.90;;;;;;5065414;28;20899;-76
2022/03/05 06:18:46;;;;;;;34.13;18.87;;;-4.70;99.90;;;;;;5071208;28;20444;-74
2022/03/05 06:21:15;;;;;;;32.27;19.10;;;-4.60;99.90;;;;;;5072236;28;20545;-74
2022/03/05 06:23:48;;;;;;;32.63;19.53;;;-4.50;99.90;;;;;;5073215;28;20514;-73
2022/03/05 06:26:16;;;;;;;34.00;19.90;;;-4.50;99.90;;;;;;5072023;28;20939;-74
2022/03/05 06:28:44;;;;;;;35.77;19.87;;;-4.40;99.90;;;;;;5072404;28;20545;-74
2022/03/05 06:31:13;;;;;;;32.67;19.53;;;-4.20;99.90;;;;;;5072070;28;20483;-74
2022/03/05 06:33:44;;;;;;;33.73;19.40;;;-4.20;99.90;;;;;;5071900;28;20489;-74
2022/03/05 06:36:13;;;;;;;35.57;19.70;;;-4.00;99.90;;;;;;5071949;28;20517;-75
2022/03/05 06:38:45;;;;;;;33.57;19.73;;;-4.00;99.90;;;;;;5071753;28;20495;-75
2022/03/05 06:41:15;;;;;;;30.67;19.43;;;-3.90;99.90;;;;;;5071910;28;20502;-75
2022/03/05 06:43:43;;;;;;;35.63;19.50;;;-3.70;99.90;;;;;;5071956;28;20542;-75
2022/03/05 06:46:11;;;;;;;33.47;19.53;;;-3.70;99.90;;;;;;5071606;28;20455;-74
2022/03/05 06:48:39;;;;;;;33.37;20.30;;;-3.60;99.90;;;;;;5072070;28;20454;-74
2022/03/05 06:51:07;;;;;;;31.07;18.90;;;-3.50;99.90;;;;;;5070959;28;20547;-75
2022/03/05 06:53:37;;;;;;;32.13;20.53;;;-3.30;99.90;;;;;;5072071;28;20568;-74
2022/03/05 06:56:05;;;;;;;33.17;20.70;;;-3.20;99.90;;;;;;5071875;28;21014;-74
2022/03/05 06:58:33;;;;;;;33.23;20.33;;;-3.10;99.90;;;;;;5071911;28;20430;-74
2022/03/05 07:01:02;;;;;;;32.53;20.50;;;-3.00;99.90;;;;;;5071470;28;20501;-75
2022/03/05 07:03:31;;;;;;;33.77;20.60;;;-2.90;99.90;;;;;;5071157;28;20450;-73
2022/03/05 07:06:03;;;;;;;31.80;20.37;;;-2.80;99.90;;;;;;5071515;28;20494;-74
2022/03/05 07:08:31;;;;;;;30.50;19.83;;;-2.70;99.90;;;;;;5072233;28;20468;-75
2022/03/05 07:11:01;;;;;;;31.17;19.57;;;-2.60;99.90;;;;;;5072227;28;20501;-76
2022/03/05 07:13:29;;;;;;;31.30;20.60;;;-2.40;99.90;;;;;;5071785;28;20595;-76
2022/03/05 07:15:57;;;;;;;32.07;20.60;;;-2.40;99.90;;;;;;5072093;28;20541;-74
2022/03/05 07:18:26;;;;;;;35.40;21.70;;;-2.30;99.90;;;;;;5074904;28;20442;-76
2022/03/05 07:20:58;;;;;;;33.90;21.33;;;-2.10;99.90;;;;;;5071695;28;20497;-74
2022/03/05 07:23:27;;;;;;;30.77;20.10;;;-2.00;99.90;;;;;;5071893;28;20528;-74
2022/03/05 07:25:55;;;;;;;32.63;20.30;;;-1.90;99.90;;;;;;5072150;28;20450;-73
2022/03/05 07:28:24;;;;;;;30.07;20.70;;;-1.80;99.90;;;;;;5074745;28;20950;-74
2022/03/05 07:30:55;;;;;;;30.77;20.57;;;-1.70;99.90;;;;;;5077940;28;20456;-74
2022/03/05 07:33:26;;;;;;;30.47;20.27;;;-1.60;99.90;;;;;;5077072;28;20473;-75
2022/03/05 07:35:56;;;;;;;31.47;19.57;;;-1.40;99.90;;;;;;5078290;28;20465;-75
2022/03/05 07:38:24;;;;;;;30.40;20.80;;;-1.40;99.90;;;;;;5075125;28;20454;-75
2022/03/05 07:40:52;;;;;;;33.77;21.73;;;-1.20;99.90;;;;;;5075842;28;20496;-74
2022/03/05 07:43:20;;;;;;;32.30;21.17;;;-1.10;99.90;;;;;;5079001;28;20968;-75
2022/03/05 07:45:50;;;;;;;36.40;20.60;;;-1.00;99.90;;;;;;5079104;28;20940;-75
2022/03/05 07:48:19;;;;;;;32.43;21.27;;;-0.80;99.90;;;;;;5079691;28;20457;-76
2022/03/05 07:50:48;;;;;;;29.73;20.77;;;-0.60;99.90;;;;;;5082440;28;20453;-75
2022/03/05 07:53:17;;;;;;;33.60;20.83;;;-0.50;99.90;;;;;;5085697;28;20838;-75
2022/03/05 07:55:46;;;;;;;30.87;20.70;;;-0.20;99.90;;;;;;5078153;28;20453;-75
2022/03/05 07:58:15;;;;;;;28.83;19.67;;;-0.10;99.90;;;;;;5080082;28;20420;-74
2022/03/05 08:00:43;;;;;;;26.77;19.17;;;0.10;99.90;;;;;;5081264;28;20474;-75
2022/03/05 08:03:12;;;;;;;29.43;19.73;;;0.20;99.90;;;;;;5077196;28;20539;-76
2022/03/05 08:05:41;;;;;;;27.07;19.33;;;0.30;99.90;;;;;;5075446;28;20548;-76
2022/03/05 08:08:09;;;;;;;28.33;18.43;;;0.50;99.90;;;;;;5075371;28;20951;-74
2022/03/05 08:10:37;;;;;;;28.93;20.13;;;0.70;99.90;;;;;;5076274;28;20486;-77
2022/03/05 08:13:05;;;;;;;27.60;19.20;;;0.80;99.90;;;;;;5079740;28;21189;-75
2022/03/05 08:15:33;;;;;;;25.17;17.27;;;1.20;99.90;;;;;;5079273;28;20449;-74
2022/03/05 08:18:02;;;;;;;24.27;17.60;;;1.80;99.90;;;;;;5077555;28;20583;-75
2022/03/05 08:20:33;;;;;;;23.53;17.40;;;3.00;99.90;;;;;;5076249;28;20215;-76
2022/03/05 08:23:01;;;;;;;33.37;17.87;;;4.30;99.90;;;;;;5075962;28;20764;-76
2022/03/05 08:25:29;;;;;;;20.77;16.90;;;5.50;99.90;;;;;;5074758;28;20279;-75
2022/03/05 08:27:58;;;;;;;19.90;16.30;;;7.10;98.80;;;;;;5075157;28;20235;-75
2022/03/05 08:30:26;;;;;;;21.00;16.93;;;8.00;95.50;;;;;;5074818;28;20281;-75
2022/03/05 08:32:54;;;;;;;22.10;17.13;;;8.30;93.90;;;;;;5074547;28;20247;-75
2022/03/05 08:35:22;;;;;;;21.27;16.87;;;8.00;93.10;;;;;;5074817;28;20310;-74
2022/03/05 08:37:52;;;;;;;21.00;17.47;;;8.20;93.60;;;;;;5074004;28;20298;-76
2022/03/05 08:40:21;;;;;;;18.93;16.50;;;8.80;90.60;;;;;;5074482;28;20306;-74
2022/03/05 08:42:50;;;;;;;19.33;16.47;;;9.00;90.30;;;;;;5074002;28;20211;-74
2022/03/05 08:45:21;;;;;;;21.27;16.37;;;8.20;90.90;;;;;;5075500;28;20223;-75
2022/03/05 08:47:49;;;;;;;20.73;16.37;;;9.10;90.20;;;;;;5075157;28;20214;-75
2022/03/05 08:50:17;;;;;;;19.83;16.60;;;9.40;89.10;;;;;;5081688;28;20212;-75
2022/03/05 08:52:45;;;;;;;20.97;17.20;;;8.40;88.90;;;;;;5082524;28;20230;-76
2022/03/05 08:55:17;;;;;;;20.60;17.27;;;8.40;90.30;;;;;;5081211;28;20579;-76
2022/03/05 08:57:48;;;;;;;22.10;16.60;;;9.00;89.20;;;;;;5077487;28;20277;-75
2022/03/05 09:00:19;;;;;;;22.07;17.87;;;9.50;88.00;;;;;;5075102;28;20310;-75
2022/03/05 09:02:47;;;;;;;20.50;17.33;;;9.80;85.40;;;;;;5074440;28;20276;-76
2022/03/05 09:05:16;;;;;;;27.70;20.53;;;9.70;86.60;;;;;;5075591;28;20219;-76
2022/03/05 09:07:47;;;;;;;20.83;18.10;;;9.80;86.10;;;;;;5075455;28;20257;-77
2022/03/05 09:10:17;;;;;;;21.77;18.20;;;9.90;85.50;;;;;;5074954;28;20665;-76
2022/03/05 09:12:45;;;;;;;18.90;16.80;;;9.70;84.90;;;;;;5076748;28;20211;-78
2022/03/05 09:15:13;;;;;;;21.17;18.00;;;9.90;84.90;;;;;;5075404;28;20199;-75
2022/03/05 09:17:42;;;;;;;18.67;16.30;;;9.90;84.10;;;;;;5078141;28;20239;-75
2022/03/05 09:20:11;;;;;;;18.93;16.93;;;9.10;85.00;;;;;;5074245;28;20353;-74
2022/03/05 09:22:40;;;;;;;20.03;17.20;;;9.60;86.50;;;;;;5073500;28;20237;-75
2022/03/05 09:25:09;;;;;;;19.77;16.80;;;9.60;85.40;;;;;;5073821;28;20739;-73
2022/03/05 09:27:39;;;;;;;18.20;16.23;;;10.80;81.40;;;;;;5073343;28;20203;-76
2022/03/05 09:30:09;;;;;;;18.80;16.20;;;11.60;78.20;;;;;;5073438;28;20254;-75
2022/03/05 09:32:37;;;;;;;21.47;17.30;;;11.20;77.20;;;;;;5073111;28;20696;-75
2022/03/05 09:35:06;;;;;;;21.53;17.23;;;10.70;79.40;;;;;;5073668;28;20239;-75
2022/03/05 09:37:35;;;;;;;16.97;15.17;;;11.10;76.70;;;;;;5073194;28;20700;-77
2022/03/05 09:40:11;;;;;;;17.63;14.20;;;11.50;75.70;;;;;;5072958;28;20196;-75
2022/03/05 09:42:43;;;;;;;15.23;13.63;;;11.70;74.60;;;;;;5072901;28;20681;-75
2022/03/05 09:45:15;;;;;;;16.77;13.73;;;12.50;70.50;;;;;;5073476;28;20211;-74
2022/03/05 09:47:45;;;;;;;24.80;15.30;;;13.30;68.60;;;;;;5072967;28;20550;-75
2022/03/05 09:50:14;;;;;;;16.90;14.30;;;13.60;66.40;;;;;;5073049;28;20267;-77
2022/03/05 09:52:42;;;;;;;16.83;15.03;;;14.20;63.20;;;;;;5075216;28;20896;-76
2022/03/05 09:55:11;;;;;;;16.30;14.60;;;13.30;65.30;;;;;;5072455;28;20238;-77
2022/03/05 09:57:39;;;;;;;14.43;12.83;;;13.20;64.20;;;;;;5072786;28;20257;-76
2022/03/05 10:00:10;;;;;;;14.90;13.10;;;14.00;63.40;;;;;;5072518;28;20247;-75
2022/03/05 10:02:38;;;;;;;14.37;12.87;;;14.30;59.80;;;;;;5073196;28;20630;-77
2022/03/05 10:05:15;;;;;;;14.53;13.00;;;13.90;59.40;;;;;;5079724;28;20215;-78
2022/03/05 10:08:01;;;;;;;13.53;11.73;;;14.20;57.60;;;;;;5072979;28;20233;-77
2022/03/05 10:10:31;;;;;;;14.53;11.37;;;14.70;55.40;;;;;;5072763;28;20240;-76
2022/03/05 10:13:16;;;;;;;12.23;10.33;;;14.00;54.30;;;;;;5072537;28;20242;-76
2022/03/05 10:15:46;;;;;;;10.73;8.30;;;14.10;55.00;;;;;;5073731;28;20191;-77
2022/03/05 10:18:15;;;;;;;15.27;9.07;;;13.50;52.00;;;;;;5074621;28;20206;-75
2022/03/05 10:20:45;;;;;;;10.40;9.00;;;12.20;53.00;;;;;;5077080;28;20243;-75
2022/03/05 10:23:13;;;;;;;17.30;8.60;;;10.50;55.00;;;;;;5075010;28;20253;-77
2022/03/05 10:25:43;;;;;;;11.83;8.03;;;10.70;56.20;;;;;;5075156;28;20670;-77
2022/03/05 10:28:17;;;;;;;13.43;8.37;;;10.40;56.90;;;;;;5075779;28;20212;-76
2022/03/05 10:30:49;;;;;;;9.90;7.90;;;9.70;57.30;;;;;;5074421;28;20204;-75
2022/03/05 10:33:31;;;;;;;13.90;8.23;;;8.10;58.40;;;;;;5073212;28;20306;-76
2022/03/05 10:36:01;;;;;;;12.70;7.90;;;7.40;60.80;;;;;;5074070;28;20635;-76
2022/03/05 10:38:49;;;;;;;10.67;7.53;;;6.80;61.60;;;;;;5073056;28;20241;-76
2022/03/05 10:41:21;;;;;;;13.80;8.33;;;6.00;63.00;;;;;;5073488;28;20207;-76
2022/03/05 10:44:05;;;;;;;13.03;8.37;;;5.70;65.00;;;;;;5073405;28;20721;-77
2022/03/05 10:46:43;;;;;;;13.73;9.17;;;5.20;67.00;;;;;;5073794;28;20666;-77
2022/03/05 10:49:17;;;;;;;13.67;8.60;;;5.10;69.40;;;;;;5073626;28;20191;-78
2022/03/05 10:51:47;;;;;;;10.20;7.83;;;4.60;67.80;;;;;;5053207;28;20306;-79
2022/03/05 10:54:25;;;;;;;13.67;8.20;;;4.40;68.60;;;;;;5053505;28;20286;-75
2022/03/05 10:56:57;;;;;;;16.03;8.23;;;4.30;68.10;;;;;;5052976;28;20219;-75
2022/03/05 10:59:25;;;;;;;15.30;8.40;;;4.40;69.00;;;;;;5056683;28;20232;-76
2022/03/05 11:01:55;;;;;;;14.17;7.50;;;4.50;68.00;;;;;;5062605;28;20290;-79
2022/03/05 11:04:23;;;;;;;9.90;7.63;;;4.80;67.20;;;;;;5074239;28;20265;-78
2022/03/05 11:06:52;;;;;;;15.17;7.43;;;5.30;65.00;;;;;;5075302;28;20211;-75
2022/03/05 11:09:24;;;;;;;11.87;6.97;;;5.70;65.70;;;;;;5084821;28;20256;-76
2022/03/05 11:11:53;;;;;;;11.70;7.10;;;5.80;64.40;;;;;;5092143;28;20199;-76
2022/03/05 11:14:23;;;;;;;12.50;7.90;;;5.60;64.40;;;;;;5083797;28;20223;-76
2022/03/05 11:16:51;;;;;;;9.30;6.80;;;5.70;66.30;;;;;;5078825;28;20204;-75
2022/03/05 11:19:22;;;;;;;10.93;8.10;;;5.80;65.30;;;;;;5074110;28;20707;-76
2022/03/05 11:21:51;;;;;;;12.47;7.90;;;5.50;65.10;;;;;;5072924;28;20195;-77
2022/03/05 11:24:21;;;;;;;14.17;8.10;;;5.50;65.60;;;;;;5072892;28;20686;-77
2022/03/05 11:26:52;;;;;;;13.10;7.70;;;5.10;66.10;;;;;;5072433;28;20207;-79
2022/03/05 11:29:51;;;;;;;11.50;7.67;;;5.20;66.40;;;;;;5071996;28;20199;-77
2022/03/05 11:32:20;;;;;;;11.23;7.30;;;5.30;67.20;;;;;;5072445;28;20227;-76
2022/03/05 11:34:52;;;;;;;11.70;7.90;;;5.40;65.40;;;;;;5075681;28;20301;-75
2022/03/05 11:37:31;;;;;;;10.97;7.77;;;5.30;65.90;;;;;;5073125;28;20340;-78
2022/03/05 11:40:00;;;;;;;15.57;8.70;;;4.80;65.50;;;;;;5073054;28;20539;-75
2022/03/05 11:42:30;;;;;;;11.43;8.47;;;4.60;67.70;;;;;;5077171;28;20211;-77
2022/03/05 11:44:59;;;;;;;12.27;8.53;;;4.10;68.50;;;;;;5058252;28;20215;-77
2022/03/05 11:47:31;;;;;;;10.97;8.40;;;4.30;69.30;;;;;;5051614;28;20243;-77
2022/03/05 11:50:16;;;;;;;11.73;8.27;;;4.50;68.50;;;;;;5051591;28;20193;-77
2022/03/05 11:53:07;;;;;;;10.80;8.43;;;4.40;68.60;;;;;;5052152;28;20246;-75
2022/03/05 11:55:41;;;;;;;10.23;7.43;;;4.70;69.30;;;;;;5051930;28;20204;-76
2022/03/05 11:58:32;;;;;;;12.27;8.80;;;5.60;67.90;;;;;;5051740;28;20208;-76
2022/03/05 12:01:15;;;;;;;13.57;9.37;;;7.00;67.00;;;;;;5050792;28;20777;-76
2022/03/05 12:03:45;;;;;;;10.90;7.60;;;7.60;62.50;;;;;;5066293;28;20192;-76
2022/03/05 12:06:20;;;;;;;9.53;7.53;;;7.40;58.70;;;;;;5071516;28;20257;-75
2022/03/05 12:08:52;;;;;;;11.87;8.43;;;6.90;59.90;;;;;;5071240;28;20291;-75
2022/03/05 12:11:22;;;;;;;10.30;7.97;;;6.40;60.60;;;;;;5071075;28;20323;-76
2022/03/05 12:13:58;;;;;;;10.97;8.30;;;6.30;63.40;;;;;;5071100;28;20290;-76
2022/03/05 12:16:27;;;;;;;11.40;7.63;;;6.20;62.50;;;;;;5064794;28;20211;-74
2022/03/05 12:18:58;;;;;;;11.23;7.93;;;6.40;64.30;;;;;;5075071;28;20211;-75
2022/03/05 12:21:30;;;;;;;11.93;7.70;;;6.40;62.00;;;;;;5074772;28;20637;-77
2022/03/05 12:23:59;;;;;;;11.17;8.13;;;6.50;63.00;;;;;;5075447;28;20188;-77
2022/03/05 12:26:37;;;;;;;11.30;8.10;;;6.50;63.50;;;;;;5074817;28;20386;-77
2022/03/05 12:29:07;;;;;;;10.00;7.67;;;6.70;63.10;;;;;;5074765;28;20294;-74
2022/03/05 12:31:41;;;;;;;9.83;7.63;;;6.10;61.00;;;;;;5074631;28;20258;-75
2022/03/05 12:34:10;;;;;;;10.20;7.73;;;5.40;63.10;;;;;;5075229;28;20199;-78
2022/03/05 12:36:44;;;;;;;11.57;8.30;;;5.10;63.30;;;;;;5074769;28;20274;-77
2022/03/05 12:39:16;;;;;;;12.20;8.57;;;4.80;64.30;;;;;;5072150;28;20204;-75
2022/03/05 12:41:46;;;;;;;11.70;8.47;;;5.00;64.50;;;;;;5074595;28;20306;-75
2022/03/05 12:44:15;;;;;;;10.87;8.47;;;5.40;64.20;;;;;;5055025;28;20204;-75